createdAt,value
2017-09-22T00:01:44.065Z,48.87
2017-09-22T00:04:10.305Z,38.30
2017-09-22T00:06:36.539Z,38.40
2017-09-22T00:09:02.772Z,36.17
2017-09-22T00:11:29.002Z,36.67
2017-09-22T00:13:55.265Z,41.50
2017-09-22T00:16:21.576Z,47.83
2017-09-22T00:18:47.822Z,38.60
2017-09-22T00:21:14.340Z,39.70
2017-09-22T00:23:40.561Z,43.70
2017-09-22T00:26:06.779Z,37.87
2017-09-22T00:28:33.017Z,37.53
2017-09-22T00:30:59.238Z,43.70
2017-09-22T00:33:25.468Z,40.33
2017-09-22T00:35:52.438Z,36.87
2017-09-22T00:38:18.650Z,35.77
2017-09-22T00:40:44.982Z,30.40
2017-09-22T00:43:11.225Z,37.40
2017-09-22T00:45:37.494Z,40.33
2017-09-22T00:48:03.730Z,35.90
2017-09-22T00:50:29.978Z,32.73
2017-09-22T00:52:56.201Z,40.23
2017-09-22T00:55:22.425Z,36.70
2017-09-22T00:57:49.279Z,35.70
2017-09-22T01:00:15.504Z,36.37
2017-09-22T01:02:41.732Z,37.30
2017-09-22T01:05:07.971Z,40.60
2017-09-22T01:07:34.214Z,38.27
2017-09-22T01:10:01.186Z,31.27
2017-09-22T01:12:27.498Z,35.93
2017-09-22T01:14:54.468Z,37.93
2017-09-22T01:17:20.695Z,37.33
2017-09-22T01:19:47.682Z,34.57
2017-09-22T01:22:14.176Z,34.67
2017-09-22T01:24:40.407Z,35.00
2017-09-22T01:27:06.675Z,36.37
2017-09-22T01:29:32.902Z,36.57
2017-09-22T01:31:59.137Z,36.90
2017-09-22T01:34:25.402Z,36.27
2017-09-22T01:36:51.622Z,34.53
2017-09-22T01:39:17.839Z,39.00
2017-09-22T01:41:44.070Z,40.67
2017-09-22T01:44:10.303Z,34.97
2017-09-22T01:46:36.514Z,34.67
2017-09-22T01:49:02.750Z,34.00
2017-09-22T01:51:28.975Z,35.53
2017-09-22T01:53:55.197Z,37.87
2017-09-22T01:56:21.422Z,40.00
2017-09-22T01:58:47.638Z,43.80
2017-09-22T02:01:14.590Z,37.87
2017-09-22T02:03:40.836Z,40.23
2017-09-22T02:06:07.052Z,36.50
2017-09-22T02:08:34.010Z,45.53
2017-09-22T02:11:00.517Z,36.90
2017-09-22T02:13:26.742Z,31.37
2017-09-22T02:15:52.958Z,32.83
2017-09-22T02:18:19.290Z,33.80
2017-09-22T02:20:45.526Z,35.00
2017-09-22T02:23:11.998Z,33.60
2017-09-22T02:25:38.265Z,34.83
2017-09-22T02:28:04.480Z,33.60
2017-09-22T02:30:30.702Z,32.93
2017-09-22T02:32:56.942Z,30.30
2017-09-22T02:35:24.357Z,32.70
2017-09-22T02:37:51.608Z,38.37
2017-09-22T02:40:18.614Z,36.10
2017-09-22T02:42:44.922Z,37.37
2017-09-22T02:45:12.541Z,39.00
2017-09-22T02:47:38.761Z,34.87
2017-09-22T02:50:05.922Z,37.00
2017-09-22T02:52:32.301Z,33.00
2017-09-22T02:54:59.351Z,37.97
2017-09-22T02:57:25.590Z,34.63
2017-09-22T02:59:51.831Z,34.67
2017-09-22T03:02:19.542Z,37.53
2017-09-22T03:04:46.017Z,38.23
2017-09-22T03:07:12.254Z,37.00
2017-09-22T03:09:38.497Z,39.70
2017-09-22T03:12:04.734Z,37.40
2017-09-22T03:14:34.755Z,39.20
2017-09-22T03:17:01.017Z,41.40
2017-09-22T03:19:27.245Z,42.70
2017-09-22T03:21:53.500Z,38.67
2017-09-22T03:24:20.867Z,39.50
2017-09-22T03:26:47.826Z,50.03
2017-09-22T03:29:14.058Z,34.70
2017-09-22T03:31:40.327Z,37.00
2017-09-22T03:34:06.562Z,45.80
2017-09-22T03:36:32.830Z,42.53
2017-09-22T03:38:59.077Z,42.23
2017-09-22T03:41:26.098Z,42.17
2017-09-22T03:43:52.321Z,43.73
2017-09-22T03:46:18.566Z,43.77
2017-09-22T03:48:47.106Z,42.77
2017-09-22T03:51:13.546Z,40.17
2017-09-22T03:53:40.664Z,39.43
2017-09-22T03:56:06.891Z,38.80
2017-09-22T03:58:33.385Z,41.20
2017-09-22T04:01:00.586Z,34.20
2017-09-22T04:03:30.217Z,41.60
2017-09-22T04:05:57.699Z,38.10
2017-09-22T04:08:26.900Z,40.43
2017-09-22T04:10:54.358Z,41.23
2017-09-22T04:13:23.726Z,38.63
2017-09-22T04:15:50.223Z,45.67
2017-09-22T04:18:18.145Z,41.63
2017-09-22T04:20:45.310Z,42.00
2017-09-22T04:23:12.721Z,41.27
2017-09-22T04:25:40.202Z,40.70
2017-09-22T04:28:07.662Z,41.50
2017-09-22T04:30:35.947Z,38.80
2017-09-22T04:33:04.606Z,36.37
2017-09-22T04:35:35.019Z,44.87
2017-09-22T04:38:03.710Z,38.43
2017-09-22T04:40:33.168Z,40.57
2017-09-22T04:43:00.920Z,39.70
2017-09-22T04:45:29.472Z,41.37
2017-09-22T04:47:55.771Z,41.97
2017-09-22T04:50:21.999Z,41.37
2017-09-22T04:52:48.246Z,43.03
2017-09-22T04:55:14.487Z,38.07
2017-09-22T04:57:40.746Z,41.27
2017-09-22T05:00:07.758Z,36.23
2017-09-22T05:02:33.981Z,41.70
2017-09-22T05:05:00.230Z,41.63
2017-09-22T05:07:26.634Z,39.30
2017-09-22T05:09:52.866Z,42.77
2017-09-22T05:12:19.094Z,41.03
2017-09-22T05:14:45.343Z,39.70
2017-09-22T05:17:11.594Z,41.47
2017-09-22T05:19:38.778Z,39.50
2017-09-22T05:22:05.758Z,43.97
2017-09-22T05:24:32.054Z,42.57
2017-09-22T05:26:58.538Z,36.33
2017-09-22T05:29:24.798Z,36.63
2017-09-22T05:31:51.039Z,38.10
2017-09-22T05:34:18.012Z,43.23
2017-09-22T05:36:44.350Z,35.73
2017-09-22T05:39:10.580Z,41.43
2017-09-22T05:41:37.519Z,42.07
2017-09-22T05:44:03.770Z,56.20
2017-09-22T05:46:29.994Z,48.00
2017-09-22T05:48:56.210Z,37.53
2017-09-22T05:51:23.228Z,45.93
2017-09-22T05:53:49.474Z,42.13
2017-09-22T05:56:16.454Z,46.90
2017-09-22T05:58:42.694Z,39.27
2017-09-22T06:01:08.914Z,46.73
2017-09-22T06:03:35.163Z,44.17
2017-09-22T06:06:01.438Z,51.13
2017-09-22T06:08:29.355Z,39.53
2017-09-22T06:10:55.576Z,43.57
2017-09-22T06:13:21.869Z,46.67
2017-09-22T06:15:48.158Z,47.17
2017-09-22T06:18:14.684Z,45.97
2017-09-22T06:20:41.093Z,42.60
2017-09-22T06:23:08.119Z,42.10
2017-09-22T06:25:34.346Z,53.57
2017-09-22T06:28:00.878Z,54.40
2017-09-22T06:30:27.114Z,53.47
2017-09-22T06:32:53.361Z,52.37
2017-09-22T06:35:20.374Z,52.00
2017-09-22T06:37:46.627Z,59.27
2017-09-22T06:40:12.882Z,53.50
2017-09-22T06:42:39.879Z,44.30
2017-09-22T06:45:06.131Z,53.33
2017-09-22T06:47:33.427Z,52.40
2017-09-22T06:49:59.843Z,50.07
2017-09-22T06:52:26.977Z,49.37
2017-09-22T06:54:53.234Z,46.77
2017-09-22T06:57:20.262Z,55.23
2017-09-22T06:59:46.505Z,50.33
2017-09-22T07:02:12.755Z,48.27
2017-09-22T07:04:39.775Z,56.80
2017-09-22T07:07:05.985Z,56.60
2017-09-22T07:09:32.366Z,54.37
2017-09-22T07:11:59.353Z,53.17
2017-09-22T07:14:25.600Z,58.50
2017-09-22T07:16:51.854Z,55.03
2017-09-22T07:19:18.146Z,53.33
2017-09-22T07:21:44.455Z,56.90
2017-09-22T07:24:10.747Z,52.80
2017-09-22T07:26:37.030Z,51.60
2017-09-22T07:29:03.527Z,52.40
2017-09-22T07:31:29.814Z,50.67
2017-09-22T07:33:56.098Z,47.00
2017-09-22T07:36:23.094Z,50.87
2017-09-22T07:38:49.334Z,52.50
2017-09-22T07:41:15.575Z,58.40
2017-09-22T07:43:41.830Z,51.63
2017-09-22T07:46:08.818Z,58.87
2017-09-22T07:48:35.087Z,49.93
2017-09-22T07:51:01.362Z,48.53
2017-09-22T07:53:27.683Z,49.27
2017-09-22T07:55:54.690Z,50.37
2017-09-22T07:58:20.937Z,50.33
2017-09-22T08:00:47.182Z,45.40
2017-09-22T08:03:13.446Z,45.83
2017-09-22T08:05:40.422Z,48.77
2017-09-22T08:08:06.652Z,43.73
2017-09-22T08:10:32.951Z,44.27
2017-09-22T08:12:59.914Z,45.23
2017-09-22T08:15:26.151Z,45.93
2017-09-22T08:17:52.415Z,44.60
2017-09-22T08:20:18.665Z,42.03
2017-09-22T08:22:44.894Z,44.47
2017-09-22T08:25:11.147Z,51.33
2017-09-22T08:27:37.382Z,52.20
2017-09-22T08:30:04.073Z,56.87
2017-09-22T08:32:30.332Z,52.93
2017-09-22T08:34:56.567Z,49.53
2017-09-22T08:37:22.894Z,46.67
2017-09-22T08:39:49.203Z,48.03
2017-09-22T08:42:15.688Z,44.57
2017-09-22T08:44:41.958Z,43.17
2017-09-22T08:47:08.246Z,44.13
2017-09-22T08:49:34.478Z,40.67
2017-09-22T08:52:01.512Z,48.93
2017-09-22T08:54:27.830Z,48.10
2017-09-22T08:56:54.055Z,38.63
2017-09-22T08:59:20.288Z,43.93
2017-09-22T09:01:46.554Z,41.27
2017-09-22T09:04:13.539Z,35.20
2017-09-22T09:20:19.398Z,36.63
2017-09-22T09:22:46.750Z,31.43
2017-09-22T09:25:16.951Z,32.90
2017-09-22T09:30:28.807Z,28.80
2017-09-22T09:32:56.569Z,30.33
2017-09-22T09:35:24.831Z,28.40
2017-09-22T09:37:57.538Z,33.90
2017-09-22T09:40:25.162Z,30.17
2017-09-22T09:43:01.943Z,33.80
2017-09-22T09:45:31.606Z,30.53
2017-09-22T09:48:03.200Z,28.53
2017-09-22T09:50:31.946Z,28.60
2017-09-22T09:53:01.176Z,27.77
2017-09-22T09:55:27.545Z,27.10
2017-09-22T09:58:14.834Z,30.10
2017-09-22T10:00:41.138Z,28.57
2017-09-22T10:03:07.366Z,21.50
2017-09-22T10:05:33.621Z,25.57
2017-09-22T10:07:59.870Z,20.30
2017-09-22T10:10:26.109Z,26.10
2017-09-22T10:12:52.362Z,20.90
2017-09-22T10:15:18.594Z,21.70
2017-09-22T10:17:44.844Z,23.40
2017-09-22T10:20:12.866Z,24.50
2017-09-22T10:22:39.098Z,30.17
2017-09-22T10:25:20.869Z,29.43
2017-09-22T10:27:50.954Z,21.40
2017-09-22T10:30:22.839Z,21.90
2017-09-22T10:32:49.346Z,17.40
2017-09-22T10:35:15.622Z,21.87
2017-09-22T10:37:42.066Z,18.20
2017-09-22T10:40:09.058Z,18.87
2017-09-22T10:42:35.291Z,18.63
2017-09-22T10:45:01.630Z,22.67
2017-09-22T10:47:27.898Z,28.33
2017-09-22T10:49:54.138Z,19.73
2017-09-22T10:52:20.425Z,23.63
2017-09-22T10:54:46.650Z,25.70
2017-09-22T10:57:12.895Z,20.80
2017-09-22T10:59:39.169Z,23.80
2017-09-22T11:02:05.407Z,23.87
2017-09-22T11:04:31.751Z,17.73
2017-09-22T11:06:58.024Z,19.40
2017-09-22T11:09:24.262Z,21.43
2017-09-22T11:11:50.626Z,17.60
2017-09-22T11:14:16.950Z,18.97
2017-09-22T11:16:43.217Z,16.67
2017-09-22T11:19:09.450Z,19.97
2017-09-22T11:21:35.710Z,17.40
2017-09-22T11:24:02.110Z,15.87
2017-09-22T11:26:28.367Z,18.10
2017-09-22T11:28:54.614Z,19.20
2017-09-22T11:31:20.688Z,15.37
2017-09-22T11:33:47.164Z,23.30
2017-09-22T11:36:13.479Z,21.43
2017-09-22T11:38:39.722Z,20.20
2017-09-22T11:41:05.958Z,17.20
2017-09-22T11:43:32.378Z,28.77
2017-09-22T11:45:58.632Z,29.10
2017-09-22T11:48:24.883Z,22.73
2017-09-22T11:50:51.141Z,23.70
2017-09-22T11:53:18.134Z,18.33
2017-09-22T11:55:44.441Z,22.57
2017-09-22T11:58:14.016Z,26.67
2017-09-22T12:00:40.278Z,36.17
2017-09-22T12:03:06.526Z,30.50
2017-09-22T12:08:31.185Z,27.37
2017-09-22T12:10:59.462Z,31.30
2017-09-22T12:16:16.121Z,27.70
2017-09-22T12:18:42.374Z,20.80
2017-09-22T12:21:09.355Z,24.73
2017-09-22T12:23:35.599Z,19.33
2017-09-22T12:26:09.506Z,15.83
2017-09-22T12:29:15.614Z,17.57
2017-09-22T12:31:57.590Z,84.93
2017-09-22T12:34:24.277Z,48.63
2017-09-22T12:36:51.254Z,46.50
2017-09-22T12:39:17.494Z,24.60
2017-09-22T12:41:43.753Z,18.27
2017-09-22T12:44:10.002Z,17.90
2017-09-22T12:46:36.984Z,16.77
2017-09-22T12:49:03.264Z,15.10
2017-09-22T12:51:29.526Z,15.03
2017-09-22T12:53:56.524Z,13.57
2017-09-22T12:56:22.886Z,14.57
2017-09-22T12:58:49.151Z,14.00
2017-09-22T13:01:16.458Z,16.67
2017-09-22T13:03:52.708Z,13.80
2017-09-22T13:06:18.939Z,17.90
2017-09-22T13:08:48.358Z,15.50
2017-09-22T13:11:18.155Z,17.97
2017-09-22T13:16:16.055Z,16.27
2017-09-22T13:18:44.486Z,19.90
2017-09-22T13:21:13.570Z,17.70
2017-09-22T13:23:39.853Z,25.87
2017-09-22T13:26:08.706Z,22.83
2017-09-22T13:28:38.647Z,18.17
2017-09-22T13:31:15.383Z,18.70
2017-09-22T13:33:41.623Z,18.93
2017-09-22T13:36:08.266Z,16.03
2017-09-22T13:38:34.514Z,27.10
2017-09-22T13:41:01.586Z,22.10
2017-09-22T13:43:28.630Z,20.63
2017-09-22T13:45:58.547Z,24.80
2017-09-22T13:48:29.101Z,34.23
2017-09-22T13:50:55.971Z,21.40
2017-09-22T13:53:22.303Z,18.27
2017-09-22T13:55:56.959Z,20.13
2017-09-22T13:58:23.970Z,17.63
2017-09-22T14:00:50.763Z,19.40
2017-09-22T14:03:18.239Z,22.53
2017-09-22T14:05:44.510Z,26.77
2017-09-22T14:08:10.738Z,18.53
2017-09-22T14:10:36.961Z,23.83
2017-09-22T14:13:03.216Z,20.93
2017-09-22T14:15:30.019Z,18.03
2017-09-22T14:17:56.423Z,15.87
2017-09-22T14:20:23.432Z,19.33
2017-09-22T14:23:06.181Z,15.07
2017-09-22T14:25:32.547Z,18.03
2017-09-22T14:27:58.876Z,19.80
2017-09-22T14:30:25.118Z,22.23
2017-09-22T14:32:51.398Z,24.50
2017-09-22T14:35:17.638Z,22.70
2017-09-22T14:37:44.934Z,23.73
2017-09-22T14:40:11.179Z,20.60
2017-09-22T14:42:40.967Z,18.97
2017-09-22T14:45:07.221Z,35.40
2017-09-22T14:47:33.482Z,27.60
2017-09-22T14:49:59.973Z,22.27
2017-09-22T14:52:26.206Z,27.70
2017-09-22T14:54:52.459Z,28.50
2017-09-22T14:57:18.802Z,22.40
2017-09-22T14:59:45.064Z,28.50
2017-09-22T15:02:11.335Z,28.00
2017-09-22T15:04:37.561Z,26.20
2017-09-22T15:07:03.787Z,23.20
2017-09-22T15:09:30.082Z,24.93
2017-09-22T15:11:56.320Z,21.00
2017-09-22T15:14:28.685Z,25.30
2017-09-22T15:16:54.943Z,27.37
2017-09-22T15:19:21.904Z,27.90
2017-09-22T15:21:48.163Z,27.10
2017-09-22T15:24:14.434Z,18.77
2017-09-22T15:26:41.454Z,27.27
2017-09-22T15:29:07.809Z,22.00
2017-09-22T15:31:34.055Z,16.37
2017-09-22T15:34:01.042Z,25.80
2017-09-22T15:36:27.310Z,26.13
2017-09-22T15:38:53.864Z,21.67
2017-09-22T15:41:21.130Z,26.53
2017-09-22T15:43:47.885Z,18.03
2017-09-22T15:46:14.893Z,18.57
2017-09-22T15:48:41.119Z,18.27
2017-09-22T15:51:08.643Z,17.33
2017-09-22T15:53:34.928Z,33.23
2017-09-22T15:56:23.392Z,21.90
2017-09-22T15:58:49.663Z,23.93
2017-09-22T16:01:15.908Z,22.50
2017-09-22T16:03:49.967Z,27.97
2017-09-22T16:06:23.454Z,19.83
2017-09-22T16:08:51.491Z,20.23
2017-09-22T16:11:17.719Z,18.70
2017-09-22T16:13:44.742Z,15.00
2017-09-22T16:16:12.587Z,18.77
2017-09-22T16:18:38.819Z,17.63
2017-09-22T16:21:05.800Z,18.47
2017-09-22T16:23:32.268Z,21.83
2017-09-22T16:25:59.579Z,18.13
2017-09-22T16:28:28.046Z,18.67
2017-09-22T16:30:54.313Z,18.00
2017-09-22T16:33:23.726Z,22.80
2017-09-22T16:35:49.975Z,31.70
2017-09-22T16:38:16.238Z,30.60
2017-09-22T16:40:43.781Z,24.43
2017-09-22T16:43:10.143Z,23.00
2017-09-22T16:45:38.865Z,20.27
2017-09-22T16:48:05.835Z,28.90
2017-09-22T16:50:32.233Z,21.43
2017-09-22T16:53:02.062Z,18.33
2017-09-22T16:55:30.154Z,21.13
2017-09-22T16:58:01.919Z,19.23
2017-09-22T17:00:28.164Z,25.53
2017-09-22T17:02:54.409Z,31.83
2017-09-22T17:05:20.670Z,38.00
2017-09-22T17:07:47.770Z,76.43
2017-09-22T17:10:14.045Z,83.20
2017-09-22T17:12:40.410Z,44.97
2017-09-22T17:15:06.729Z,27.50
2017-09-22T17:17:32.972Z,23.70
2017-09-22T17:20:00.006Z,20.07
2017-09-22T17:22:26.986Z,28.50
2017-09-22T17:24:53.238Z,22.87
2017-09-22T17:27:19.577Z,19.33
2017-09-22T17:29:45.874Z,18.30
2017-09-22T17:32:12.106Z,18.13
2017-09-22T17:34:38.370Z,21.30
2017-09-22T17:37:04.624Z,17.23
2017-09-22T17:39:30.852Z,24.17
2017-09-22T17:41:57.371Z,23.33
2017-09-22T17:44:23.626Z,17.97
2017-09-22T17:46:49.911Z,25.80
2017-09-22T17:49:16.176Z,25.30
2017-09-22T17:51:42.418Z,24.67
2017-09-22T17:54:08.701Z,45.10
2017-09-22T17:56:34.954Z,68.27
2017-09-22T17:59:01.230Z,63.67
2017-09-22T18:01:29.018Z,39.33
2017-09-22T18:03:58.414Z,33.83
2017-09-22T18:06:24.679Z,24.83
2017-09-22T18:08:50.926Z,22.13
2017-09-22T18:11:17.194Z,24.97
2017-09-22T18:13:44.202Z,26.53
2017-09-22T18:16:10.470Z,22.90
2017-09-22T18:18:36.731Z,23.90
2017-09-22T18:21:02.978Z,23.43
2017-09-22T18:23:29.266Z,22.93
2017-09-22T18:25:56.258Z,22.43
2017-09-22T18:28:22.486Z,21.00
2017-09-22T18:30:48.710Z,23.90
2017-09-22T18:33:14.995Z,23.13
2017-09-22T18:35:41.395Z,25.20
2017-09-22T18:38:07.623Z,23.83
2017-09-22T18:40:33.883Z,20.03
2017-09-22T18:43:00.590Z,23.90
2017-09-22T18:45:28.483Z,22.00
2017-09-22T18:47:55.942Z,29.93
2017-09-22T18:50:24.627Z,26.63
2017-09-22T18:52:58.862Z,24.07
2017-09-22T18:55:25.186Z,24.00
2017-09-22T18:57:53.832Z,22.30
2017-09-22T19:00:20.357Z,21.60
2017-09-22T19:02:46.693Z,20.03
2017-09-22T19:05:13.691Z,22.97
2017-09-22T19:07:43.132Z,19.60
2017-09-22T19:10:10.672Z,31.57
2017-09-22T19:12:36.959Z,32.00
2017-09-22T19:15:03.247Z,23.67
2017-09-22T19:17:29.525Z,26.83
2017-09-22T19:19:55.771Z,30.80
2017-09-22T19:22:22.582Z,21.77
2017-09-22T19:24:49.027Z,18.33
2017-09-22T19:27:15.418Z,22.23
2017-09-22T19:29:41.698Z,17.03
2017-09-22T19:32:08.030Z,13.73
2017-09-22T19:34:35.129Z,14.47
2017-09-22T19:37:01.460Z,11.80
2017-09-22T19:39:27.874Z,17.17
2017-09-22T19:41:54.125Z,12.57
2017-09-22T19:44:20.901Z,10.57
2017-09-22T19:46:47.410Z,10.37
2017-09-22T19:49:13.670Z,15.87
2017-09-22T19:51:40.730Z,13.80
2017-09-22T19:54:07.293Z,14.10
2017-09-22T19:56:34.333Z,18.37
2017-09-22T19:59:00.590Z,13.20
2017-09-22T20:01:26.823Z,13.57
2017-09-22T20:03:53.055Z,17.50
2017-09-22T20:06:19.308Z,16.33
2017-09-22T20:08:45.679Z,16.00
2017-09-22T20:11:11.954Z,16.57
2017-09-22T20:13:38.240Z,16.70
2017-09-22T20:16:04.575Z,14.17
2017-09-22T20:18:30.849Z,16.53
2017-09-22T20:20:57.364Z,14.97
2017-09-22T20:23:23.714Z,15.97
2017-09-22T20:25:49.953Z,14.80
2017-09-22T20:28:16.222Z,16.27
2017-09-22T20:30:42.502Z,16.50
2017-09-22T20:33:08.749Z,17.90
2017-09-22T20:35:35.011Z,21.10
2017-09-22T20:38:01.258Z,19.10
2017-09-22T20:40:27.586Z,19.00
2017-09-22T20:42:54.790Z,16.60
2017-09-22T20:45:21.431Z,17.70
2017-09-22T20:47:47.820Z,22.70
2017-09-22T20:50:14.806Z,14.23
2017-09-22T20:52:56.806Z,17.03
2017-09-22T20:55:23.836Z,31.80
2017-09-22T20:57:51.186Z,25.87
2017-09-22T21:00:17.677Z,18.80
2017-09-22T21:02:44.766Z,12.03
2017-09-22T21:05:11.002Z,12.07
2017-09-22T21:07:37.303Z,12.20
2017-09-22T21:10:03.583Z,10.93
2017-09-22T21:12:29.806Z,15.70
2017-09-22T21:14:56.071Z,13.10
2017-09-22T21:17:22.317Z,11.80
2017-09-22T21:19:48.539Z,10.53
2017-09-22T21:22:14.768Z,11.90
2017-09-22T21:24:41.030Z,14.33
2017-09-22T21:27:07.414Z,14.20
2017-09-22T21:29:34.558Z,9.77
2017-09-22T21:32:01.266Z,11.83
2017-09-22T21:34:27.586Z,10.57
2017-09-22T21:36:53.926Z,10.90
2017-09-22T21:39:20.194Z,12.17
2017-09-22T21:41:46.439Z,10.13
2017-09-22T21:44:13.474Z,11.70
2017-09-22T21:46:40.994Z,24.37
2017-09-22T21:49:07.868Z,67.60
2017-09-22T21:51:34.831Z,51.73
2017-09-22T21:54:01.083Z,31.60
2017-09-22T21:56:27.318Z,22.00
2017-09-22T21:58:53.547Z,10.57
2017-09-22T22:01:19.802Z,11.53
2017-09-22T22:03:53.715Z,14.60
2017-09-22T22:09:21.615Z,9.63
2017-09-22T22:11:47.902Z,11.77
2017-09-22T22:14:16.709Z,10.87
2017-09-22T22:16:44.423Z,9.67
2017-09-22T22:19:11.474Z,9.43
2017-09-22T22:21:40.352Z,9.87
2017-09-22T22:24:07.855Z,9.73
2017-09-22T22:26:34.902Z,9.97
2017-09-22T22:29:01.907Z,10.20
2017-09-22T22:31:29.433Z,9.90
2017-09-22T22:33:56.379Z,9.90
2017-09-22T22:36:25.218Z,9.80
2017-09-22T22:38:53.320Z,10.40
2017-09-22T22:41:21.710Z,9.17
2017-09-22T22:46:23.962Z,9.30
2017-09-22T22:48:51.962Z,11.47
2017-09-22T22:51:20.723Z,9.53
2017-09-22T22:53:48.059Z,10.33
2017-09-22T22:56:15.221Z,11.17
2017-09-22T22:58:43.607Z,10.13
2017-09-22T23:01:10.931Z,12.00
2017-09-22T23:03:37.206Z,11.33
2017-09-22T23:06:04.696Z,11.93
2017-09-22T23:08:32.714Z,10.70
2017-09-22T23:11:00.932Z,10.13
2017-09-22T23:13:27.374Z,10.33
2017-09-22T23:15:53.666Z,9.30
2017-09-22T23:18:19.919Z,9.17
2017-09-22T23:20:46.190Z,10.43
2017-09-22T23:23:15.069Z,10.30
2017-09-22T23:25:42.405Z,9.80
2017-09-22T23:28:10.808Z,11.27
2017-09-22T23:30:40.786Z,10.23
2017-09-22T23:33:08.242Z,10.07
2017-09-22T23:35:34.550Z,14.20
2017-09-22T23:38:00.852Z,10.27
2017-09-22T23:40:27.094Z,10.43
2017-09-22T23:42:54.636Z,10.63
2017-09-22T23:45:22.434Z,9.20
2017-09-22T23:47:49.972Z,10.83
2017-09-22T23:50:16.473Z,11.37
2017-09-22T23:52:44.074Z,9.20
2017-09-22T23:55:12.574Z,10.97
2017-09-22T23:57:40.571Z,10.10
